createdAt,value
2023-01-31T00:01:23.490Z,97.13
2023-01-31T00:03:56.721Z,97.45
2023-01-31T00:06:30.552Z,97.38
2023-01-31T00:08:57.805Z,97.14
2023-01-31T00:11:25.412Z,97.30
2023-01-31T00:13:52.702Z,97.30
2023-01-31T00:16:19.590Z,97.30
2023-01-31T00:18:46.323Z,97.75
2023-01-31T00:21:19.908Z,97.52
2023-01-31T00:23:47.083Z,97.61
2023-01-31T00:26:21.231Z,97.41
2023-01-31T00:28:48.483Z,98.46
2023-01-31T00:31:16.191Z,98.18
2023-01-31T00:33:43.641Z,97.82
2023-01-31T00:36:11.904Z,98.13
2023-01-31T00:38:38.897Z,97.84
2023-01-31T00:41:05.491Z,97.92
2023-01-31T00:43:32.847Z,97.55
2023-01-31T00:45:59.404Z,97.28
2023-01-31T00:48:25.937Z,96.96
2023-01-31T00:50:52.396Z,96.62
2023-01-31T00:53:23.677Z,96.36
2023-01-31T00:55:50.818Z,96.44
2023-01-31T00:58:17.811Z,96.06
2023-01-31T01:00:44.375Z,95.72
2023-01-31T01:03:10.834Z,95.44
2023-01-31T01:05:37.420Z,95.52
2023-01-31T01:08:03.932Z,95.70
2023-01-31T01:10:30.467Z,95.14
2023-01-31T01:12:56.951Z,95.36
2023-01-31T01:15:23.371Z,95.45
2023-01-31T01:17:50.975Z,95.45
2023-01-31T01:20:17.499Z,95.92
2023-01-31T01:22:44.027Z,95.46
2023-01-31T01:25:10.895Z,96.06
2023-01-31T01:27:37.368Z,95.83
2023-01-31T01:30:04.723Z,96.00
2023-01-31T01:32:31.154Z,96.69
2023-01-31T01:34:57.596Z,96.62
2023-01-31T01:37:24.304Z,96.73
2023-01-31T01:39:51.895Z,97.09
2023-01-31T01:42:20.187Z,97.07
2023-01-31T01:44:52.804Z,96.96
2023-01-31T01:47:22.281Z,97.18
2023-01-31T01:49:58.098Z,97.43
2023-01-31T01:52:26.310Z,97.03
2023-01-31T01:55:03.198Z,97.10
2023-01-31T01:57:32.932Z,97.20
2023-01-31T02:00:04.886Z,97.32
2023-01-31T02:02:32.166Z,98.08
2023-01-31T02:04:58.980Z,98.54
2023-01-31T02:07:25.731Z,99.09
2023-01-31T02:10:18.474Z,98.92
2023-01-31T02:12:45.102Z,98.82
2023-01-31T02:15:11.616Z,98.24
2023-01-31T02:17:38.200Z,98.25
2023-01-31T02:20:04.952Z,97.69
2023-01-31T02:22:50.265Z,97.68
2023-01-31T02:25:22.917Z,97.52
2023-01-31T02:27:49.423Z,97.47
2023-01-31T02:30:15.855Z,97.69
2023-01-31T02:32:48.855Z,98.19
2023-01-31T02:35:27.774Z,98.71
2023-01-31T02:38:12.597Z,98.34
2023-01-31T02:40:43.219Z,98.19
2023-01-31T02:43:21.448Z,98.21
2023-01-31T02:45:57.117Z,98.99
2023-01-31T02:48:38.822Z,98.41
2023-01-31T02:51:09.716Z,98.15
2023-01-31T02:53:43.642Z,98.16
2023-01-31T02:56:14.649Z,98.23
2023-01-31T02:58:42.791Z,98.18
2023-01-31T03:01:14.316Z,98.19
2023-01-31T03:03:41.948Z,98.39
2023-01-31T03:06:08.384Z,98.61
2023-01-31T03:08:35.073Z,98.90
2023-01-31T03:11:04.236Z,98.73
2023-01-31T03:13:30.653Z,98.88
2023-01-31T03:16:25.034Z,98.94
2023-01-31T03:19:00.573Z,99.54
2023-01-31T03:21:36.763Z,99.45
2023-01-31T03:24:04.628Z,99.50
2023-01-31T03:26:31.118Z,99.24
2023-01-31T03:28:59.128Z,99.66
2023-01-31T03:31:31.159Z,99.73
2023-01-31T03:34:04.229Z,100.00
2023-01-31T03:36:33.681Z,100.00
2023-01-31T03:39:06.212Z,100.00
2023-01-31T03:41:39.500Z,100.00
2023-01-31T03:44:09.444Z,100.00
2023-01-31T03:46:43.500Z,100.00
2023-01-31T03:49:12.632Z,100.00
2023-01-31T03:51:42.920Z,100.00
2023-01-31T03:54:12.458Z,100.00
2023-01-31T03:56:52.726Z,100.00
2023-01-31T03:59:22.943Z,100.00
2023-01-31T04:01:52.170Z,100.00
2023-01-31T04:04:25.369Z,100.00
2023-01-31T04:06:51.928Z,99.70
2023-01-31T04:09:18.474Z,99.31
2023-01-31T04:11:47.806Z,99.25
2023-01-31T04:14:14.581Z,99.21
2023-01-31T04:16:40.993Z,99.50
2023-01-31T04:19:07.461Z,99.36
2023-01-31T04:21:33.962Z,99.24
2023-01-31T04:24:00.461Z,98.08
2023-01-31T04:26:26.989Z,97.43
2023-01-31T04:28:53.556Z,96.88
2023-01-31T04:31:20.044Z,96.37
2023-01-31T04:33:46.513Z,95.73
2023-01-31T04:36:13.266Z,95.38
2023-01-31T04:38:39.736Z,94.68
2023-01-31T04:41:06.224Z,94.97
2023-01-31T04:43:33.062Z,95.17
2023-01-31T04:45:59.587Z,94.65
2023-01-31T04:48:26.033Z,94.79
2023-01-31T04:50:52.736Z,94.72
2023-01-31T04:53:19.229Z,94.50
2023-01-31T04:55:45.672Z,93.48
2023-01-31T04:58:12.137Z,93.83
2023-01-31T05:00:38.679Z,93.97
2023-01-31T05:03:05.233Z,93.76
2023-01-31T05:05:34.754Z,93.37
2023-01-31T05:08:02.746Z,93.04
2023-01-31T05:10:29.197Z,92.91
2023-01-31T05:12:55.698Z,92.50
2023-01-31T05:15:22.796Z,91.94
2023-01-31T05:17:53.522Z,91.80
2023-01-31T05:20:20.752Z,91.72
2023-01-31T05:22:48.279Z,91.73
2023-01-31T05:25:15.094Z,91.46
2023-01-31T05:27:41.962Z,91.66
2023-01-31T05:30:08.911Z,91.65
2023-01-31T05:32:37.062Z,91.19
2023-01-31T05:35:03.717Z,91.27
2023-01-31T05:37:30.201Z,90.92
2023-01-31T05:39:57.019Z,91.11
2023-01-31T05:42:23.645Z,90.51
2023-01-31T05:44:50.066Z,90.45
2023-01-31T05:47:16.698Z,90.14
2023-01-31T05:49:43.130Z,89.87
2023-01-31T05:52:09.921Z,89.68
2023-01-31T05:54:36.339Z,89.86
2023-01-31T05:57:02.808Z,89.80
2023-01-31T05:59:31.297Z,89.52
2023-01-31T06:01:57.771Z,89.32
2023-01-31T06:04:24.303Z,89.54
2023-01-31T06:06:50.739Z,89.39
2023-01-31T06:09:17.157Z,88.87
2023-01-31T06:11:43.597Z,88.95
2023-01-31T06:14:10.242Z,89.83
2023-01-31T06:16:36.704Z,90.37
2023-01-31T06:19:03.307Z,91.55
2023-01-31T06:21:29.977Z,92.01
2023-01-31T06:23:56.413Z,92.18
2023-01-31T06:26:23.239Z,91.87
2023-01-31T06:28:49.795Z,92.41
2023-01-31T06:31:16.325Z,92.18
2023-01-31T06:33:47.311Z,92.36
2023-01-31T06:36:15.036Z,91.92
2023-01-31T06:38:42.542Z,92.25
2023-01-31T06:41:09.346Z,91.65
2023-01-31T06:43:35.824Z,91.00
2023-01-31T06:46:02.310Z,91.13
2023-01-31T06:48:28.857Z,91.19
2023-01-31T06:50:55.721Z,90.72
2023-01-31T06:53:22.611Z,90.27
2023-01-31T06:55:49.054Z,90.54
2023-01-31T06:58:15.554Z,89.40
2023-01-31T07:00:42.016Z,88.71
2023-01-31T07:03:08.441Z,88.30
2023-01-31T07:05:34.929Z,87.86
2023-01-31T07:08:01.371Z,87.15
2023-01-31T07:10:27.894Z,87.34
2023-01-31T07:12:54.352Z,87.39
2023-01-31T07:15:21.210Z,87.71
2023-01-31T07:17:48.005Z,87.06
2023-01-31T07:20:14.510Z,86.75
2023-01-31T07:22:40.997Z,86.55
2023-01-31T07:25:07.640Z,85.95
2023-01-31T07:27:34.158Z,85.97
2023-01-31T07:30:00.696Z,85.83
2023-01-31T07:32:28.781Z,84.74
2023-01-31T07:34:55.202Z,84.65
2023-01-31T07:37:21.639Z,84.78
2023-01-31T07:39:48.073Z,84.86
2023-01-31T07:42:14.553Z,85.19
2023-01-31T07:44:41.007Z,85.24
2023-01-31T07:47:07.462Z,84.90
2023-01-31T07:49:33.892Z,83.33
2023-01-31T07:52:01.372Z,83.44
2023-01-31T07:54:27.781Z,83.96
2023-01-31T07:56:54.189Z,83.14
2023-01-31T07:59:20.655Z,83.73
2023-01-31T08:02:05.847Z,83.10
2023-01-31T08:04:34.148Z,83.24
2023-01-31T08:07:03.048Z,83.08
2023-01-31T08:09:30.665Z,82.59
2023-01-31T08:11:57.234Z,83.56
2023-01-31T08:14:25.548Z,83.60
2023-01-31T08:16:52.503Z,83.58
2023-01-31T08:19:18.968Z,83.58
2023-01-31T08:21:46.048Z,83.34
2023-01-31T08:24:12.591Z,83.95
2023-01-31T08:26:39.161Z,84.15
2023-01-31T08:29:05.691Z,83.95
2023-01-31T08:31:32.672Z,84.45
2023-01-31T08:33:59.965Z,83.98
2023-01-31T08:36:28.319Z,84.39
2023-01-31T08:38:55.380Z,84.06
2023-01-31T08:41:22.851Z,82.91
2023-01-31T08:43:58.201Z,82.88
2023-01-31T08:46:26.631Z,82.57
2023-01-31T08:48:53.152Z,81.86
2023-01-31T08:51:19.791Z,83.03
2023-01-31T08:53:46.438Z,83.50
2023-01-31T08:56:13.547Z,83.25
2023-01-31T08:58:41.933Z,83.81
2023-01-31T09:01:09.680Z,83.68
2023-01-31T09:03:36.211Z,81.96
2023-01-31T09:06:04.950Z,81.88
2023-01-31T09:08:31.711Z,82.86
2023-01-31T09:11:00.486Z,82.81
2023-01-31T09:13:27.767Z,82.86
2023-01-31T09:15:57.544Z,83.38
2023-01-31T09:18:24.020Z,82.64
2023-01-31T09:20:50.500Z,83.22
2023-01-31T09:23:16.913Z,83.94
2023-01-31T09:25:47.577Z,83.76
2023-01-31T09:28:14.462Z,84.11
2023-01-31T09:30:41.037Z,83.53
2023-01-31T09:33:07.516Z,82.92
2023-01-31T09:35:34.247Z,83.20
2023-01-31T09:38:00.964Z,82.42
2023-01-31T09:40:32.024Z,82.16
2023-01-31T09:43:02.000Z,82.86
2023-01-31T09:45:36.834Z,81.75
2023-01-31T09:48:04.839Z,81.91
2023-01-31T09:50:35.134Z,81.90
2023-01-31T09:53:03.099Z,81.54
2023-01-31T09:55:39.991Z,81.05
2023-01-31T09:58:12.458Z,81.44
2023-01-31T10:00:52.089Z,82.44
2023-01-31T10:03:37.077Z,81.50
2023-01-31T10:06:09.931Z,81.72
2023-01-31T10:08:36.335Z,82.99
2023-01-31T10:11:05.942Z,82.84
2023-01-31T10:13:35.400Z,83.32
2023-01-31T10:16:11.025Z,83.86
2023-01-31T10:18:41.405Z,84.13
2023-01-31T10:21:13.475Z,84.35
2023-01-31T10:23:52.691Z,83.19
2023-01-31T10:26:25.287Z,83.65
2023-01-31T10:28:55.820Z,84.24
2023-01-31T10:31:34.188Z,83.98
2023-01-31T10:34:05.559Z,83.41
2023-01-31T10:36:45.537Z,84.24
2023-01-31T10:39:20.547Z,84.04
2023-01-31T10:41:53.147Z,83.41
2023-01-31T10:44:27.040Z,83.57
2023-01-31T10:46:57.226Z,83.44
2023-01-31T10:49:24.930Z,82.91
2023-01-31T10:52:06.854Z,83.26
2023-01-31T10:54:47.429Z,82.12
2023-01-31T10:57:14.238Z,81.93
2023-01-31T10:59:43.834Z,81.54
2023-01-31T11:02:18.061Z,81.13
2023-01-31T11:04:44.643Z,81.15
2023-01-31T11:07:11.094Z,80.98
2023-01-31T11:09:40.247Z,81.61
2023-01-31T11:12:07.661Z,81.64
2023-01-31T11:14:34.311Z,82.20
2023-01-31T11:17:03.111Z,82.17
2023-01-31T11:19:29.562Z,82.44
2023-01-31T11:21:56.354Z,83.26
2023-01-31T11:24:24.489Z,83.62
2023-01-31T11:26:56.756Z,83.71
2023-01-31T11:29:27.571Z,83.33
2023-01-31T11:31:55.151Z,83.14
2023-01-31T11:34:25.852Z,83.32
2023-01-31T11:36:52.654Z,83.32
2023-01-31T11:39:33.063Z,83.69
2023-01-31T11:42:06.971Z,83.91
2023-01-31T11:44:33.481Z,83.38
2023-01-31T11:47:12.197Z,84.01
2023-01-31T11:49:41.003Z,84.00
2023-01-31T11:52:15.479Z,83.79
2023-01-31T11:55:02.155Z,84.52
2023-01-31T11:57:33.589Z,84.93
2023-01-31T12:00:01.843Z,85.44
2023-01-31T12:02:28.458Z,85.48
2023-01-31T12:04:55.128Z,85.35
2023-01-31T12:07:26.973Z,85.83
2023-01-31T12:09:53.438Z,85.95
2023-01-31T12:12:25.173Z,85.89
2023-01-31T12:14:51.691Z,85.67
2023-01-31T12:17:20.425Z,85.55
2023-01-31T12:20:02.295Z,85.67
2023-01-31T12:22:36.765Z,85.36
2023-01-31T12:25:17.216Z,85.96
2023-01-31T12:27:49.978Z,86.39
2023-01-31T12:30:31.891Z,86.17
2023-01-31T12:33:01.456Z,85.79
2023-01-31T12:35:37.347Z,85.76
2023-01-31T12:38:22.454Z,85.88
2023-01-31T12:40:55.024Z,85.42
2023-01-31T12:43:24.616Z,84.48
2023-01-31T12:46:11.536Z,84.15
2023-01-31T12:48:50.872Z,84.37
2023-01-31T12:51:29.207Z,84.19
2023-01-31T12:54:04.949Z,83.68
2023-01-31T12:56:40.503Z,83.01
2023-01-31T12:59:19.536Z,82.51
2023-01-31T13:02:09.291Z,80.24
2023-01-31T13:04:41.583Z,81.08
2023-01-31T13:07:12.934Z,81.41
2023-01-31T13:09:39.509Z,81.75
2023-01-31T13:12:14.739Z,81.30
2023-01-31T13:14:43.787Z,80.55
2023-01-31T13:17:13.474Z,81.06
2023-01-31T13:19:44.650Z,81.90
2023-01-31T13:22:16.912Z,80.74
2023-01-31T13:24:45.555Z,80.30
2023-01-31T13:27:14.750Z,80.32
2023-01-31T13:29:43.650Z,79.98
2023-01-31T13:32:14.402Z,79.88
2023-01-31T13:34:51.255Z,79.81
2023-01-31T13:37:21.423Z,78.39
2023-01-31T13:39:54.536Z,78.54
2023-01-31T13:42:21.069Z,78.16
2023-01-31T13:44:48.855Z,78.55
2023-01-31T13:47:24.707Z,79.40
2023-01-31T13:49:57.053Z,79.39
2023-01-31T13:52:32.675Z,79.42
2023-01-31T13:55:01.805Z,79.30
2023-01-31T13:57:33.581Z,79.72
2023-01-31T14:00:21.139Z,80.04
2023-01-31T14:03:07.549Z,80.58
2023-01-31T14:05:43.389Z,81.47
2023-01-31T14:08:28.633Z,81.63
2023-01-31T14:10:56.118Z,82.09
2023-01-31T14:13:28.677Z,82.00
2023-01-31T14:15:56.245Z,82.17
2023-01-31T14:18:55.257Z,81.93
2023-01-31T14:21:30.525Z,82.33
2023-01-31T14:23:58.547Z,82.48
2023-01-31T14:26:31.154Z,81.90
2023-01-31T14:28:57.713Z,81.68
2023-01-31T14:31:26.564Z,82.16
2023-01-31T14:33:57.431Z,82.62
2023-01-31T14:36:36.449Z,82.45
2023-01-31T14:39:32.194Z,82.10
2023-01-31T14:42:17.431Z,82.12
2023-01-31T14:44:49.440Z,80.80
2023-01-31T14:47:26.333Z,79.16
2023-01-31T14:50:11.551Z,79.57
2023-01-31T14:52:42.705Z,79.25
2023-01-31T14:55:25.176Z,79.37
2023-01-31T14:57:54.180Z,78.79
2023-01-31T15:00:23.641Z,78.65
2023-01-31T15:03:02.363Z,78.57
2023-01-31T15:05:31.758Z,78.01
2023-01-31T15:08:06.361Z,77.96
2023-01-31T15:10:51.647Z,78.55
2023-01-31T15:13:35.231Z,78.72
2023-01-31T15:16:10.816Z,78.72
2023-01-31T15:18:37.535Z,79.26
2023-01-31T15:21:05.707Z,79.27
2023-01-31T15:23:33.924Z,79.42
2023-01-31T15:26:01.370Z,79.44
2023-01-31T15:28:30.103Z,79.51
2023-01-31T15:30:58.964Z,79.87
2023-01-31T15:33:29.285Z,79.96
2023-01-31T15:36:01.631Z,80.73
2023-01-31T15:38:34.078Z,81.26
2023-01-31T15:41:12.385Z,81.55
2023-01-31T15:43:39.760Z,81.93
2023-01-31T15:46:32.537Z,81.92
2023-01-31T15:49:00.296Z,82.38
2023-01-31T15:51:27.047Z,82.49
2023-01-31T15:54:05.840Z,82.23
2023-01-31T15:56:33.961Z,82.58
2023-01-31T15:59:03.344Z,82.72
2023-01-31T16:01:30.911Z,82.91
2023-01-31T16:03:58.663Z,83.08
2023-01-31T16:06:26.845Z,83.07
2023-01-31T16:09:00.771Z,83.29
2023-01-31T16:11:33.274Z,83.27
2023-01-31T16:14:01.653Z,83.23
2023-01-31T16:16:29.292Z,83.65
2023-01-31T16:18:57.881Z,83.93
2023-01-31T16:21:27.410Z,84.13
2023-01-31T16:23:57.899Z,84.26
2023-01-31T16:26:27.744Z,84.39
2023-01-31T16:29:06.093Z,83.91
2023-01-31T16:31:36.064Z,83.76
2023-01-31T16:34:05.794Z,83.71
2023-01-31T16:36:50.585Z,83.74
2023-01-31T16:39:28.193Z,83.53
2023-01-31T16:41:58.049Z,83.48
2023-01-31T16:44:27.197Z,83.71
2023-01-31T16:46:53.985Z,83.71
2023-01-31T16:49:25.026Z,83.06
2023-01-31T16:52:17.975Z,83.29
2023-01-31T16:54:51.918Z,83.14
2023-01-31T16:57:23.053Z,83.47
2023-01-31T16:59:50.632Z,83.24
2023-01-31T17:02:29.091Z,83.59
2023-01-31T17:05:00.100Z,83.67
2023-01-31T17:07:32.466Z,83.52
2023-01-31T17:10:00.962Z,83.47
2023-01-31T17:12:29.019Z,83.67
2023-01-31T17:15:02.812Z,83.42
2023-01-31T17:17:32.795Z,83.56
2023-01-31T17:19:59.501Z,83.57
2023-01-31T17:22:26.793Z,83.99
2023-01-31T17:24:53.688Z,83.71
2023-01-31T17:27:21.502Z,84.07
2023-01-31T17:29:48.092Z,83.90
2023-01-31T17:32:16.197Z,84.40
2023-01-31T17:34:45.055Z,84.42
2023-01-31T17:37:18.038Z,84.73
2023-01-31T17:39:47.154Z,84.68
2023-01-31T17:42:18.193Z,85.12
2023-01-31T17:44:45.044Z,84.61
2023-01-31T17:47:11.539Z,85.53
2023-01-31T17:49:37.994Z,85.27
2023-01-31T17:52:04.517Z,85.49
2023-01-31T17:54:30.975Z,86.00
2023-01-31T17:56:57.612Z,86.52
2023-01-31T17:59:27.432Z,86.87
2023-01-31T18:01:54.264Z,86.74
2023-01-31T18:04:21.003Z,86.74
2023-01-31T18:06:47.523Z,86.25
2023-01-31T18:09:15.969Z,85.99
2023-01-31T18:11:43.824Z,86.04
2023-01-31T18:14:10.995Z,86.24
2023-01-31T18:16:37.516Z,86.53
2023-01-31T18:19:04.056Z,86.72
2023-01-31T18:21:30.537Z,86.87
2023-01-31T18:23:57.672Z,86.95
2023-01-31T18:26:24.506Z,86.79
2023-01-31T18:28:51.396Z,87.47
2023-01-31T18:31:18.360Z,87.79
2023-01-31T18:33:46.015Z,87.92
2023-01-31T18:36:14.166Z,88.37
2023-01-31T18:38:42.685Z,88.63
2023-01-31T18:41:10.570Z,88.53
2023-01-31T18:43:37.015Z,88.53
2023-01-31T18:46:04.388Z,88.35
2023-01-31T18:48:33.729Z,88.44
2023-01-31T18:51:04.723Z,88.63
2023-01-31T18:53:34.376Z,88.25
2023-01-31T18:56:05.856Z,88.12
2023-01-31T18:58:33.716Z,87.74
2023-01-31T19:01:07.570Z,87.87
2023-01-31T19:03:34.318Z,87.90
2023-01-31T19:06:11.976Z,88.00
2023-01-31T19:08:38.629Z,87.88
2023-01-31T19:11:05.165Z,87.83
2023-01-31T19:13:32.652Z,88.05
2023-01-31T19:16:03.180Z,87.62
2023-01-31T19:18:29.737Z,87.55
2023-01-31T19:20:56.528Z,87.43
2023-01-31T19:23:23.362Z,87.63
2023-01-31T19:25:49.808Z,87.58
2023-01-31T19:28:16.331Z,87.68
2023-01-31T19:30:42.827Z,87.96
2023-01-31T19:33:09.330Z,88.12
2023-01-31T19:35:35.947Z,88.31
2023-01-31T19:38:02.575Z,88.38
2023-01-31T19:40:29.021Z,88.29
2023-01-31T19:42:56.896Z,88.61
2023-01-31T19:45:23.663Z,88.36
2023-01-31T19:47:50.429Z,88.68
2023-01-31T19:50:19.247Z,88.86
2023-01-31T19:52:45.894Z,90.08
2023-01-31T19:55:12.343Z,90.13
2023-01-31T19:57:38.823Z,90.02
2023-01-31T20:00:05.686Z,90.44
2023-01-31T20:02:32.228Z,90.46
2023-01-31T20:04:58.821Z,90.40
2023-01-31T20:07:25.697Z,90.24
2023-01-31T20:09:52.186Z,89.91
2023-01-31T20:12:18.627Z,89.65
2023-01-31T20:14:45.084Z,89.98
2023-01-31T20:17:11.584Z,90.37
2023-01-31T20:19:38.070Z,90.95
2023-01-31T20:22:04.705Z,90.65
2023-01-31T20:24:31.212Z,91.05
2023-01-31T20:27:00.196Z,90.73
2023-01-31T20:29:28.388Z,90.84
2023-01-31T20:31:54.975Z,90.69
2023-01-31T20:34:21.503Z,90.45
2023-01-31T20:36:47.963Z,90.85
2023-01-31T20:39:14.554Z,90.77
2023-01-31T20:41:40.979Z,90.85
2023-01-31T20:44:07.424Z,91.01
2023-01-31T20:46:34.065Z,90.73
2023-01-31T20:49:00.513Z,90.71
2023-01-31T20:51:27.020Z,90.41
2023-01-31T20:53:53.560Z,90.53
2023-01-31T20:56:20.048Z,90.54
2023-01-31T20:58:46.804Z,90.25
2023-01-31T21:01:13.391Z,90.50
2023-01-31T21:03:40.101Z,90.23
2023-01-31T21:06:06.802Z,90.13
2023-01-31T21:08:35.360Z,90.41
2023-01-31T21:11:04.860Z,90.40
2023-01-31T21:13:33.004Z,90.40
2023-01-31T21:16:02.036Z,89.97
2023-01-31T21:18:30.027Z,90.29
2023-01-31T21:20:56.937Z,90.23
2023-01-31T21:23:23.532Z,90.02
2023-01-31T21:25:49.982Z,90.21
2023-01-31T21:28:16.472Z,90.20
2023-01-31T21:30:43.156Z,90.29
2023-01-31T21:33:09.686Z,90.34
2023-01-31T21:35:36.133Z,90.24
2023-01-31T21:38:02.598Z,90.36
2023-01-31T21:40:29.200Z,90.28
2023-01-31T21:42:55.678Z,90.45
2023-01-31T21:45:40.525Z,90.38
2023-01-31T21:48:26.009Z,90.45
2023-01-31T21:50:52.498Z,90.05
2023-01-31T21:53:19.066Z,90.00
2023-01-31T21:55:45.829Z,89.83
2023-01-31T21:58:12.313Z,90.22
2023-01-31T22:00:38.809Z,90.51
2023-01-31T22:03:05.281Z,90.55
2023-01-31T22:05:31.844Z,91.01
2023-01-31T22:07:58.308Z,90.99
2023-01-31T22:10:24.801Z,91.35
2023-01-31T22:12:51.380Z,91.22
2023-01-31T22:15:17.950Z,91.20
2023-01-31T22:17:44.686Z,91.54
2023-01-31T22:20:12.110Z,90.94
2023-01-31T22:22:38.651Z,90.87
2023-01-31T22:25:05.349Z,91.00
2023-01-31T22:27:31.792Z,91.28
2023-01-31T22:30:06.607Z,91.53
2023-01-31T22:32:40.557Z,91.84
2023-01-31T22:35:07.145Z,92.71
2023-01-31T22:37:33.569Z,93.28
2023-01-31T22:40:00.021Z,93.04
2023-01-31T22:42:26.576Z,93.19
2023-01-31T22:44:53.052Z,93.21
2023-01-31T22:47:19.498Z,93.03
2023-01-31T22:49:45.967Z,93.12
2023-01-31T22:52:12.401Z,92.81
2023-01-31T22:54:38.850Z,92.75
2023-01-31T22:57:05.315Z,92.44
2023-01-31T22:59:31.728Z,92.20
2023-01-31T23:01:58.156Z,91.89
2023-01-31T23:04:24.658Z,91.55
2023-01-31T23:06:51.135Z,91.77
2023-01-31T23:09:17.798Z,91.47
2023-01-31T23:11:44.225Z,91.34
2023-01-31T23:14:10.656Z,91.17
2023-01-31T23:16:55.708Z,91.07
2023-01-31T23:19:22.195Z,91.10
2023-01-31T23:21:49.446Z,91.56
2023-01-31T23:24:16.020Z,91.46
2023-01-31T23:26:42.778Z,91.23
2023-01-31T23:29:09.336Z,91.41
2023-01-31T23:31:36.617Z,91.49
2023-01-31T23:34:05.964Z,91.40
2023-01-31T23:36:32.405Z,92.08
2023-01-31T23:38:58.832Z,92.83
2023-01-31T23:41:25.297Z,92.89
2023-01-31T23:43:51.720Z,93.09
2023-01-31T23:46:18.191Z,93.06
2023-01-31T23:48:44.717Z,93.12
2023-01-31T23:51:11.187Z,93.37
2023-01-31T23:53:39.572Z,93.83
2023-01-31T23:56:06.353Z,93.40
2023-01-31T23:58:32.854Z,93.50
